Terminal Aerodrome Forecast
Issued by NWS

Home | Current Version | Previous Version | Graphics & Text | Print | Product List | Glossary On
Versions: 1 2 3 4 5 6 7 8 9 10 11 12 13 14
963
FTUS43 KICT 162333
TAFSLN
TAF
KSLN 162333Z 1700/1724 33008KT P6SM SCT200
     FM171200 29005KT P6SM FEW250
     FM171800 33005KT P6SM FEW200=

USA.gov is the U.S. government's official web portal to all federal, state and local government web resources and services.